createdAt,value
2023-02-02T00:01:48.910Z,100277.00
2023-02-02T00:04:24.011Z,100263.00
2023-02-02T00:06:50.905Z,100273.00
2023-02-02T00:09:20.230Z,100259.00
2023-02-02T00:11:49.035Z,100258.00
2023-02-02T00:14:15.803Z,100260.00
2023-02-02T00:16:51.453Z,100255.00
2023-02-02T00:19:22.920Z,100266.00
2023-02-02T00:21:49.852Z,100276.00
2023-02-02T00:24:18.493Z,100262.00
2023-02-02T00:26:51.348Z,100260.00
2023-02-02T00:29:21.782Z,100254.00
2023-02-02T00:31:49.324Z,100252.00
2023-02-02T00:34:17.247Z,100264.00
2023-02-02T00:36:45.247Z,100249.00
2023-02-02T00:39:21.938Z,100250.00
2023-02-02T00:41:48.810Z,100254.00
2023-02-02T00:44:33.840Z,100253.00
2023-02-02T00:47:00.591Z,100240.00
2023-02-02T00:49:27.461Z,100234.00
2023-02-02T00:51:54.258Z,100235.00
2023-02-02T00:54:21.050Z,100242.00
2023-02-02T00:56:47.943Z,100235.00
2023-02-02T00:59:14.824Z,100262.00
2023-02-02T01:01:41.741Z,100254.00
2023-02-02T01:04:08.631Z,100259.00
2023-02-02T01:06:35.675Z,100279.00
2023-02-02T01:09:03.659Z,100264.00
2023-02-02T01:11:30.910Z,100265.00
2023-02-02T01:13:57.896Z,100256.00
2023-02-02T01:16:24.914Z,100257.00
2023-02-02T01:18:52.670Z,100256.00
2023-02-02T01:21:20.316Z,100257.00
2023-02-02T01:23:47.458Z,100256.00
2023-02-02T01:26:15.293Z,100267.00
2023-02-02T01:28:43.255Z,100271.00
2023-02-02T01:31:20.129Z,100263.00
2023-02-02T01:33:49.408Z,100260.00
2023-02-02T01:36:20.689Z,100271.00
2023-02-02T01:38:49.276Z,100273.00
2023-02-02T01:41:24.961Z,100259.00
2023-02-02T01:44:02.136Z,100257.00
2023-02-02T01:46:37.106Z,100260.00
2023-02-02T01:49:12.167Z,100258.00
2023-02-02T01:51:54.604Z,100262.00
2023-02-02T01:54:29.231Z,100266.00
2023-02-02T01:57:34.337Z,100270.00
2023-02-02T02:00:06.497Z,100279.00
2023-02-02T02:02:34.056Z,100266.00
2023-02-02T02:05:03.568Z,100281.00
2023-02-02T02:07:30.977Z,100279.00
2023-02-02T02:09:57.988Z,100280.00
2023-02-02T02:12:24.840Z,100270.00
2023-02-02T02:15:11.536Z,100276.00
2023-02-02T02:17:52.526Z,100283.00
2023-02-02T02:21:28.750Z,100285.00
2023-02-02T02:24:37.548Z,100282.00
2023-02-02T02:27:50.042Z,100301.00
2023-02-02T02:31:20.691Z,100296.00
2023-02-02T02:34:09.329Z,100306.00
2023-02-02T02:36:53.982Z,100303.00
2023-02-02T02:39:41.369Z,100308.00
2023-02-02T02:42:15.624Z,100307.00
2023-02-02T02:44:43.163Z,100335.00
2023-02-02T02:47:10.703Z,100315.00
2023-02-02T02:49:46.496Z,100318.00
2023-02-02T02:52:13.842Z,100317.00
2023-02-02T02:54:49.883Z,100333.00
2023-02-02T02:58:11.975Z,100326.00
2023-02-02T03:00:51.943Z,100331.00
2023-02-02T03:03:41.479Z,100324.00
2023-02-02T03:06:22.796Z,100333.00
2023-02-02T03:09:00.734Z,100333.00
2023-02-02T03:11:27.865Z,100334.00
2023-02-02T03:13:55.888Z,100350.00
2023-02-02T03:16:22.635Z,100346.00
2023-02-02T03:18:49.424Z,100357.00
2023-02-02T03:21:16.177Z,100365.00
2023-02-02T03:23:42.895Z,100371.00
2023-02-02T03:26:09.881Z,100373.00
2023-02-02T03:28:36.887Z,100387.00
2023-02-02T03:31:04.101Z,100396.00
2023-02-02T03:33:35.935Z,100388.00
2023-02-02T03:36:02.958Z,100393.00
2023-02-02T03:38:29.721Z,100385.00
2023-02-02T03:40:56.679Z,100412.00
2023-02-02T03:43:24.746Z,100425.00
2023-02-02T03:45:59.874Z,100419.00
2023-02-02T03:48:27.400Z,100406.00
2023-02-02T03:50:54.419Z,100436.00
2023-02-02T03:53:21.792Z,100440.00
2023-02-02T03:55:48.571Z,100433.00
2023-02-02T03:58:15.472Z,100426.00
2023-02-02T04:00:42.197Z,100438.00
2023-02-02T04:03:09.015Z,100447.00
2023-02-02T04:05:35.769Z,100454.00
2023-02-02T04:08:02.536Z,100464.00
2023-02-02T04:10:29.376Z,100477.00
2023-02-02T04:12:56.145Z,100473.00
2023-02-02T04:15:23.217Z,100481.00
2023-02-02T04:17:50.080Z,100487.00
2023-02-02T04:20:17.253Z,100488.00
2023-02-02T04:22:44.031Z,100495.00
2023-02-02T04:25:10.785Z,100496.00
2023-02-02T04:27:37.548Z,100506.00
2023-02-02T04:30:05.806Z,100513.00
2023-02-02T04:32:32.594Z,100519.00
2023-02-02T04:34:59.537Z,100515.00
2023-02-02T04:37:27.111Z,100523.00
2023-02-02T04:39:55.313Z,100520.00
2023-02-02T04:42:22.077Z,100526.00
2023-02-02T04:44:49.580Z,100526.00
2023-02-02T04:47:16.627Z,100535.00
2023-02-02T04:49:43.458Z,100522.00
2023-02-02T04:52:11.595Z,100539.00
2023-02-02T04:54:38.362Z,100548.00
2023-02-02T04:57:05.117Z,100547.00
2023-02-02T04:59:31.838Z,100552.00
2023-02-02T05:02:02.601Z,100547.00
2023-02-02T05:04:29.672Z,100563.00
2023-02-02T05:06:56.456Z,100556.00
2023-02-02T05:09:23.337Z,100575.00
2023-02-02T05:11:50.092Z,100582.00
2023-02-02T05:14:18.482Z,100582.00
2023-02-02T05:16:45.563Z,100573.00
2023-02-02T05:19:12.933Z,100589.00
2023-02-02T05:21:39.689Z,100598.00
2023-02-02T05:24:06.685Z,100609.00
2023-02-02T05:26:33.496Z,100610.00
2023-02-02T05:29:00.315Z,100612.00
2023-02-02T05:31:27.418Z,100622.00
2023-02-02T05:33:54.233Z,100618.00
2023-02-02T05:36:21.136Z,100626.00
2023-02-02T05:38:48.076Z,100636.00
2023-02-02T05:41:14.824Z,100628.00
2023-02-02T05:43:41.840Z,100632.00
2023-02-02T05:46:08.787Z,100647.00
2023-02-02T05:48:35.597Z,100639.00
2023-02-02T05:51:15.651Z,100656.00
2023-02-02T05:53:45.014Z,100641.00
2023-02-02T05:56:13.177Z,100655.00
2023-02-02T05:58:39.964Z,100656.00
2023-02-02T06:01:06.729Z,100655.00
2023-02-02T06:03:33.604Z,100663.00
2023-02-02T06:06:00.597Z,100669.00
2023-02-02T06:08:27.570Z,100674.00
2023-02-02T06:10:54.376Z,100667.00
2023-02-02T06:13:22.101Z,100672.00
2023-02-02T06:15:48.904Z,100686.00
2023-02-02T06:18:15.847Z,100679.00
2023-02-02T06:20:42.607Z,100691.00
2023-02-02T06:23:09.409Z,100690.00
2023-02-02T06:25:36.162Z,100699.00
2023-02-02T06:28:03.055Z,100696.00
2023-02-02T06:30:29.829Z,100710.00
2023-02-02T06:32:59.409Z,100713.00
2023-02-02T06:35:26.445Z,100721.00
2023-02-02T06:37:53.715Z,100722.00
2023-02-02T06:40:20.785Z,100718.00
2023-02-02T06:42:47.585Z,100717.00
2023-02-02T06:45:14.342Z,100731.00
2023-02-02T06:47:41.106Z,100735.00
2023-02-02T06:50:09.468Z,100744.00
2023-02-02T06:52:36.204Z,100748.00
2023-02-02T06:55:03.119Z,100758.00
2023-02-02T06:57:29.936Z,100752.00
2023-02-02T06:59:56.746Z,100757.00
2023-02-02T07:02:23.668Z,100757.00
2023-02-02T07:04:51.244Z,100763.00
2023-02-02T07:07:17.959Z,100769.00
2023-02-02T07:09:44.700Z,100783.00
2023-02-02T07:12:11.456Z,100778.00
2023-02-02T07:14:38.208Z,100797.00
2023-02-02T07:17:05.071Z,100783.00
2023-02-02T07:19:31.895Z,100793.00
2023-02-02T07:21:58.670Z,100801.00
2023-02-02T07:24:25.460Z,100813.00
2023-02-02T07:26:52.295Z,100823.00
2023-02-02T07:29:19.235Z,100825.00
2023-02-02T07:31:46.214Z,100824.00
2023-02-02T07:34:12.980Z,100828.00
2023-02-02T07:36:39.763Z,100831.00
2023-02-02T07:39:07.696Z,100834.00
2023-02-02T07:41:36.922Z,100843.00
2023-02-02T07:44:05.006Z,100835.00
2023-02-02T07:46:32.144Z,100836.00
2023-02-02T07:48:59.113Z,100844.00
2023-02-02T07:51:26.463Z,100851.00
2023-02-02T07:53:55.400Z,100856.00
2023-02-02T07:56:25.826Z,100860.00
2023-02-02T07:58:54.659Z,100853.00
2023-02-02T08:01:23.555Z,100862.00
2023-02-02T08:03:51.101Z,100861.00
2023-02-02T08:06:25.367Z,100861.00
2023-02-02T08:08:52.416Z,100874.00
2023-02-02T08:11:22.289Z,100879.00
2023-02-02T08:13:52.142Z,100872.00
2023-02-02T08:16:20.322Z,100876.00
2023-02-02T08:18:47.782Z,100886.00
2023-02-02T08:21:16.124Z,100891.00
2023-02-02T08:23:43.913Z,100894.00
2023-02-02T08:26:17.150Z,100895.00
2023-02-02T08:28:48.172Z,100897.00
2023-02-02T08:31:21.471Z,100903.00
2023-02-02T08:33:48.815Z,100894.00
2023-02-02T08:36:18.922Z,100899.00
2023-02-02T08:38:46.586Z,100909.00
2023-02-02T08:41:17.458Z,100895.00
2023-02-02T08:43:44.871Z,100907.00
2023-02-02T08:46:16.975Z,100915.00
2023-02-02T08:48:44.244Z,100910.00
2023-02-02T08:51:15.143Z,100911.00
2023-02-02T08:53:43.156Z,100924.00
2023-02-02T08:56:14.226Z,100921.00
2023-02-02T08:58:48.820Z,100921.00
2023-02-02T09:01:22.833Z,100931.00
2023-02-02T09:03:59.802Z,100923.00
2023-02-02T09:06:32.185Z,100936.00
2023-02-02T09:08:59.261Z,100919.00
2023-02-02T09:11:26.394Z,100938.00
2023-02-02T09:13:59.475Z,100942.00
2023-02-02T09:16:27.770Z,100945.00
2023-02-02T09:18:56.527Z,100961.00
2023-02-02T09:21:24.240Z,100968.00
2023-02-02T09:23:53.754Z,100971.00
2023-02-02T09:26:26.917Z,100968.00
2023-02-02T09:29:02.512Z,100980.00
2023-02-02T09:31:35.527Z,100987.00
2023-02-02T09:34:08.703Z,100985.00
2023-02-02T09:36:37.707Z,100984.00
2023-02-02T09:39:06.389Z,100996.00
2023-02-02T09:41:41.931Z,101000.00
2023-02-02T09:44:37.559Z,101007.00
2023-02-02T09:47:41.672Z,101004.00
2023-02-02T09:50:21.088Z,101005.00
2023-02-02T09:53:07.845Z,101021.00
2023-02-02T09:55:42.973Z,101007.00
2023-02-02T09:58:34.664Z,101007.00
2023-02-02T10:01:26.784Z,101012.00
2023-02-02T10:04:22.010Z,101017.00
2023-02-02T10:07:08.633Z,101016.00
2023-02-02T10:09:55.587Z,101015.00
2023-02-02T10:12:47.828Z,101010.00
2023-02-02T10:15:20.536Z,101007.00
2023-02-02T10:21:13.386Z,101021.00
2023-02-02T10:23:45.622Z,101030.00
2023-02-02T10:26:42.368Z,101031.00
2023-02-02T10:29:40.126Z,101034.00
2023-02-02T10:32:23.678Z,101031.00
2023-02-02T10:35:11.031Z,101059.00
2023-02-02T10:38:00.916Z,101047.00
2023-02-02T10:40:59.204Z,101051.00
2023-02-02T10:43:59.892Z,101036.00
2023-02-02T10:46:43.691Z,101049.00
2023-02-02T10:49:15.434Z,101050.00
2023-02-02T10:51:51.917Z,101039.00
2023-02-02T10:54:56.407Z,101053.00
2023-02-02T10:57:50.679Z,101052.00
2023-02-02T11:00:40.518Z,101053.00
2023-02-02T11:03:11.762Z,101051.00
2023-02-02T11:05:57.775Z,101051.00
2023-02-02T11:08:52.654Z,101056.00
2023-02-02T11:11:33.135Z,101072.00
2023-02-02T11:14:07.653Z,101082.00
2023-02-02T11:16:44.395Z,101065.00
2023-02-02T11:19:17.336Z,101077.00
2023-02-02T11:22:03.563Z,101080.00
2023-02-02T11:24:45.134Z,101081.00
2023-02-02T11:27:21.129Z,101081.00
2023-02-02T11:30:00.972Z,101092.00
2023-02-02T11:32:32.975Z,101111.00
2023-02-02T11:35:02.709Z,101109.00
2023-02-02T11:37:50.421Z,101091.00
2023-02-02T11:40:24.306Z,101113.00
2023-02-02T11:42:52.767Z,101111.00
2023-02-02T11:45:30.297Z,101099.00
2023-02-02T11:48:24.191Z,101109.00
2023-02-02T11:50:57.653Z,101104.00
2023-02-02T11:53:32.022Z,101110.00
2023-02-02T11:56:10.289Z,101112.00
2023-02-02T11:58:56.478Z,101112.00
2023-02-02T12:01:43.911Z,101111.00
2023-02-02T12:04:13.687Z,101107.00
2023-02-02T12:06:40.991Z,101125.00
2023-02-02T12:09:26.515Z,101139.00
2023-02-02T12:12:26.397Z,101142.00
2023-02-02T12:15:33.995Z,101151.00
2023-02-02T12:18:38.807Z,101158.00
2023-02-02T12:21:11.573Z,101149.00
2023-02-02T12:24:18.198Z,101179.00
2023-02-02T12:26:57.420Z,101171.00
2023-02-02T12:30:03.456Z,101180.00
2023-02-02T12:32:57.309Z,101189.00
2023-02-02T12:35:48.187Z,101176.00
2023-02-02T12:38:45.496Z,101185.00
2023-02-02T12:42:11.327Z,101179.00
2023-02-02T12:45:35.000Z,101178.00
2023-02-02T12:48:33.089Z,101176.00
2023-02-02T12:51:50.497Z,101177.00
2023-02-02T12:54:57.659Z,101184.00
2023-02-02T12:57:50.150Z,101187.00
2023-02-02T13:00:54.176Z,101185.00
2023-02-02T13:04:00.842Z,101175.00
2023-02-02T13:07:24.731Z,101207.00
2023-02-02T13:10:20.367Z,101195.00
2023-02-02T13:12:59.858Z,101201.00
2023-02-02T13:15:37.220Z,101215.00
2023-02-02T13:18:34.403Z,101211.00
2023-02-02T13:21:07.638Z,101223.00
2023-02-02T13:23:44.915Z,101229.00
2023-02-02T13:26:27.724Z,101240.00
2023-02-02T13:29:47.935Z,101251.00
2023-02-02T13:32:34.305Z,101237.00
2023-02-02T13:35:18.889Z,101253.00
2023-02-02T13:38:03.911Z,101247.00
2023-02-02T13:40:42.626Z,101278.00
2023-02-02T13:43:43.111Z,101266.00
2023-02-02T13:46:36.646Z,101273.00
2023-02-02T13:49:13.457Z,101279.00
2023-02-02T13:52:16.671Z,101274.00
2023-02-02T13:55:52.407Z,101291.00
2023-02-02T13:59:19.250Z,101311.00
2023-02-02T14:01:50.109Z,101306.00
2023-02-02T14:04:29.788Z,101331.00
2023-02-02T14:07:01.895Z,101319.00
2023-02-02T14:09:34.378Z,101322.00
2023-02-02T14:12:10.419Z,101325.00
2023-02-02T14:14:45.531Z,101326.00
2023-02-02T14:17:16.649Z,101334.00
2023-02-02T14:19:53.891Z,101340.00
2023-02-02T14:22:48.111Z,101349.00
2023-02-02T14:25:33.222Z,101355.00
2023-02-02T14:28:02.852Z,101362.00
2023-02-02T14:30:40.177Z,101363.00
2023-02-02T14:33:22.211Z,101374.00
2023-02-02T14:35:48.864Z,101373.00
2023-02-02T14:38:49.897Z,101384.00
2023-02-02T14:42:05.865Z,101391.00
2023-02-02T14:44:34.736Z,101403.00
2023-02-02T14:47:03.255Z,101411.00
2023-02-02T14:49:35.608Z,101412.00
2023-02-02T14:52:05.240Z,101419.00
2023-02-02T14:54:42.214Z,101428.00
2023-02-02T14:57:27.314Z,101433.00
2023-02-02T14:59:56.482Z,101428.00
2023-02-02T15:02:34.081Z,101447.00
2023-02-02T15:05:28.811Z,101445.00
2023-02-02T15:08:13.636Z,101451.00
2023-02-02T15:10:53.778Z,101459.00
2023-02-02T15:13:37.569Z,101458.00
2023-02-02T15:16:23.956Z,101477.00
2023-02-02T15:19:05.499Z,101475.00
2023-02-02T15:21:36.192Z,101473.00
2023-02-02T15:24:06.113Z,101486.00
2023-02-02T15:26:42.964Z,101489.00
2023-02-02T15:29:38.179Z,101497.00
2023-02-02T15:32:07.311Z,101504.00
2023-02-02T15:34:48.481Z,101511.00
2023-02-02T15:37:23.041Z,101516.00
2023-02-02T15:39:56.256Z,101508.00
2023-02-02T15:42:50.910Z,101521.00
2023-02-02T15:45:43.868Z,101523.00
2023-02-02T15:48:26.827Z,101541.00
2023-02-02T15:50:55.364Z,101549.00
2023-02-02T15:53:40.811Z,101559.00
2023-02-02T15:56:22.860Z,101558.00
2023-02-02T15:58:54.068Z,101554.00
2023-02-02T16:01:24.491Z,101576.00
2023-02-02T16:04:17.291Z,101582.00
2023-02-02T16:06:45.412Z,101579.00
2023-02-02T16:09:25.091Z,101589.00
2023-02-02T16:11:52.655Z,101595.00
2023-02-02T16:14:20.492Z,101608.00
2023-02-02T16:16:50.095Z,101609.00
2023-02-02T16:19:22.635Z,101613.00
2023-02-02T16:22:04.249Z,101627.00
2023-02-02T16:24:37.147Z,101626.00
2023-02-02T16:27:10.103Z,101640.00
2023-02-02T16:29:40.564Z,101641.00
2023-02-02T16:32:25.781Z,101646.00
2023-02-02T16:34:52.616Z,101650.00
2023-02-02T16:37:25.503Z,101654.00
2023-02-02T16:39:52.282Z,101660.00
2023-02-02T16:42:33.550Z,101670.00
2023-02-02T16:45:01.209Z,101669.00
2023-02-02T16:47:28.097Z,101690.00
2023-02-02T16:50:10.146Z,101683.00
2023-02-02T16:53:22.699Z,101672.00
2023-02-02T16:55:51.434Z,101684.00
2023-02-02T16:58:22.875Z,101685.00
2023-02-02T17:01:16.018Z,101694.00
2023-02-02T17:03:55.055Z,101698.00
2023-02-02T17:06:50.179Z,101689.00
2023-02-02T17:09:45.187Z,101701.00
2023-02-02T17:12:34.984Z,101701.00
2023-02-02T17:15:28.752Z,101708.00
2023-02-02T17:17:57.600Z,101714.00
2023-02-02T17:20:26.801Z,101716.00
2023-02-02T17:23:03.620Z,101723.00
2023-02-02T17:25:42.419Z,101729.00
2023-02-02T17:28:19.876Z,101725.00
2023-02-02T17:30:55.213Z,101733.00
2023-02-02T17:33:22.087Z,101733.00
2023-02-02T17:35:55.991Z,101729.00
2023-02-02T17:38:25.213Z,101738.00
2023-02-02T17:40:53.217Z,101742.00
2023-02-02T17:43:19.980Z,101734.00
2023-02-02T17:45:46.936Z,101749.00
2023-02-02T17:48:14.510Z,101759.00
2023-02-02T17:50:42.981Z,101759.00
2023-02-02T17:53:17.544Z,101756.00
2023-02-02T17:55:46.408Z,101761.00
2023-02-02T17:58:17.183Z,101771.00
2023-02-02T18:00:56.243Z,101765.00
2023-02-02T18:03:28.424Z,101770.00
2023-02-02T18:05:57.615Z,101763.00
2023-02-02T18:08:24.507Z,101766.00
2023-02-02T18:10:51.520Z,101757.00
2023-02-02T18:13:20.926Z,101774.00
2023-02-02T18:15:49.244Z,101770.00
2023-02-02T18:18:17.103Z,101766.00
2023-02-02T18:20:47.150Z,101759.00
2023-02-02T18:23:16.032Z,101753.00
2023-02-02T18:25:43.348Z,101765.00
2023-02-02T18:28:11.128Z,101770.00
2023-02-02T18:30:40.549Z,101771.00
2023-02-02T18:33:09.492Z,101773.00
2023-02-02T18:35:41.630Z,101773.00
2023-02-02T18:38:08.995Z,101769.00
2023-02-02T18:40:35.973Z,101768.00
2023-02-02T18:43:02.735Z,101759.00
2023-02-02T18:45:29.776Z,101768.00
2023-02-02T18:47:56.955Z,101758.00
2023-02-02T18:50:24.297Z,101765.00
2023-02-02T18:52:51.096Z,101765.00
2023-02-02T18:55:18.092Z,101775.00
2023-02-02T18:57:44.878Z,101769.00
2023-02-02T19:00:12.482Z,101758.00
2023-02-02T19:02:39.382Z,101757.00
2023-02-02T19:05:25.333Z,101754.00
2023-02-02T19:07:54.955Z,101759.00
2023-02-02T19:10:27.271Z,101759.00
2023-02-02T19:13:14.421Z,101760.00
2023-02-02T19:15:44.153Z,101759.00
2023-02-02T19:18:20.113Z,101763.00
2023-02-02T19:20:49.940Z,101770.00
2023-02-02T19:23:20.683Z,101778.00
2023-02-02T19:25:51.727Z,101777.00
2023-02-02T19:28:30.873Z,101775.00
2023-02-02T19:31:01.625Z,101771.00
2023-02-02T19:33:49.545Z,101783.00
2023-02-02T19:36:27.547Z,101784.00
2023-02-02T19:39:11.296Z,101786.00
2023-02-02T19:41:40.646Z,101782.00
2023-02-02T19:44:17.403Z,101788.00
2023-02-02T19:46:49.329Z,101783.00
2023-02-02T19:49:33.402Z,101781.00
2023-02-02T19:52:16.670Z,101787.00
2023-02-02T19:54:45.135Z,101786.00
2023-02-02T19:57:21.332Z,101789.00
2023-02-02T19:59:50.893Z,101787.00
2023-02-02T20:02:42.188Z,101798.00
2023-02-02T20:05:23.068Z,101807.00
2023-02-02T20:08:01.596Z,101788.00
2023-02-02T20:10:43.593Z,101786.00
2023-02-02T20:13:32.022Z,101787.00
2023-02-02T20:16:03.858Z,101791.00
2023-02-02T20:18:50.725Z,101798.00
2023-02-02T20:21:43.443Z,101795.00
2023-02-02T20:24:27.505Z,101805.00
2023-02-02T20:27:00.755Z,101803.00
2023-02-02T20:29:41.476Z,101795.00
2023-02-02T20:32:26.560Z,101807.00
2023-02-02T20:34:59.304Z,101806.00
2023-02-02T20:37:35.893Z,101803.00
2023-02-02T20:40:21.227Z,101792.00
2023-02-02T20:42:52.158Z,101783.00
2023-02-02T20:45:21.556Z,101787.00
2023-02-02T20:47:50.174Z,101796.00
2023-02-02T20:50:20.962Z,101787.00
2023-02-02T20:52:48.298Z,101789.00
2023-02-02T20:55:15.175Z,101792.00
2023-02-02T20:57:42.009Z,101788.00
2023-02-02T21:00:12.923Z,101781.00
2023-02-02T21:02:39.748Z,101779.00
2023-02-02T21:05:07.056Z,101775.00
2023-02-02T21:07:34.003Z,101767.00
2023-02-02T21:10:00.983Z,101763.00
2023-02-02T21:12:27.859Z,101769.00
2023-02-02T21:14:55.510Z,101763.00
2023-02-02T21:17:22.412Z,101762.00
2023-02-02T21:19:49.236Z,101768.00
2023-02-02T21:22:16.171Z,101763.00
2023-02-02T21:24:44.216Z,101768.00
2023-02-02T21:27:11.198Z,101759.00
2023-02-02T21:29:38.461Z,101757.00
2023-02-02T21:32:06.567Z,101752.00
2023-02-02T21:34:33.612Z,101754.00
2023-02-02T21:37:00.420Z,101755.00
2023-02-02T21:39:32.463Z,101751.00
2023-02-02T21:42:08.257Z,101748.00
2023-02-02T21:44:43.465Z,101749.00
2023-02-02T21:47:45.150Z,101738.00
2023-02-02T21:50:18.897Z,101738.00
2023-02-02T21:52:46.220Z,101749.00
2023-02-02T21:55:34.632Z,101738.00
2023-02-02T21:58:22.421Z,101741.00
2023-02-02T22:00:50.496Z,101745.00
2023-02-02T22:03:28.345Z,101746.00
2023-02-02T22:06:23.063Z,101741.00
2023-02-02T22:08:50.834Z,101735.00
2023-02-02T22:11:29.682Z,101721.00
2023-02-02T22:14:39.656Z,101718.00
2023-02-02T22:17:22.892Z,101715.00
2023-02-02T22:20:17.441Z,101719.00
2023-02-02T22:22:49.892Z,101719.00
2023-02-02T22:25:16.668Z,101723.00
2023-02-02T22:27:54.900Z,101728.00
2023-02-02T22:30:40.201Z,101728.00
2023-02-02T22:33:13.099Z,101721.00
2023-02-02T22:35:42.148Z,101719.00
2023-02-02T22:38:10.798Z,101726.00
2023-02-02T22:40:38.054Z,101725.00
2023-02-02T22:43:06.191Z,101719.00
2023-02-02T22:45:33.791Z,101724.00
2023-02-02T22:48:00.818Z,101723.00
2023-02-02T22:50:31.296Z,101726.00
2023-02-02T22:52:58.474Z,101726.00
2023-02-02T22:55:25.496Z,101725.00
2023-02-02T22:57:52.370Z,101722.00
2023-02-02T23:00:24.228Z,101726.00
2023-02-02T23:02:52.873Z,101727.00
2023-02-02T23:05:21.843Z,101720.00
2023-02-02T23:07:49.954Z,101708.00
2023-02-02T23:10:24.230Z,101711.00
2023-02-02T23:12:53.899Z,101707.00
2023-02-02T23:15:21.292Z,101709.00
2023-02-02T23:17:48.468Z,101713.00
2023-02-02T23:20:16.146Z,101715.00
2023-02-02T23:22:42.962Z,101701.00
2023-02-02T23:25:11.067Z,101704.00
2023-02-02T23:27:38.463Z,101702.00
2023-02-02T23:30:07.519Z,101696.00
2023-02-02T23:32:35.029Z,101700.00
2023-02-02T23:35:02.041Z,101699.00
2023-02-02T23:37:29.004Z,101699.00
2023-02-02T23:39:55.945Z,101690.00
2023-02-02T23:42:22.862Z,101689.00
2023-02-02T23:44:49.620Z,101671.00
2023-02-02T23:47:16.522Z,101670.00
2023-02-02T23:49:44.413Z,101668.00
2023-02-02T23:52:12.013Z,101660.00
2023-02-02T23:54:39.165Z,101666.00
2023-02-02T23:57:06.153Z,101653.00
2023-02-02T23:59:33.189Z,101657.00
